Surigao, Philippines
Current Conditions -  °F | °C
As of 1:00 PM on Tuesday 27 Jan 2015 (Local Time) from RPVM Reporting Station
Scattered Clouds Scattered Clouds  
Wind Chill: 84°   Ceiling: Unl
Heat Index: 91°   Visibility: 6mi
Dew Point: 73°   Wind: 10mph
Humidity: 70%   Direction: 30°NNE
Pressure: 29.85"   Gusts: NA
Location:  9.8°N, 125.47°E
Report Text: RPVM 270500Z 03009KT 9999 FEW020 SCT100 29/23 Q1011 RMK A2985
Loading
Personal Weather Stations






























Interactive Weather Map New forecast layout! Learn more

10-Day Weather Forecast

Advertisements
Track Severe Weather on mobile